createdAt,value
2023-02-14T00:01:28.880Z,9.91
2023-02-14T00:04:00.717Z,9.84
2023-02-14T00:06:28.741Z,9.83
2023-02-14T00:08:55.739Z,9.79
2023-02-14T00:11:23.300Z,9.76
2023-02-14T00:14:10.603Z,9.71
2023-02-14T00:16:37.692Z,9.67
2023-02-14T00:19:04.674Z,9.67
2023-02-14T00:21:33.292Z,9.64
2023-02-14T00:24:00.159Z,9.62
2023-02-14T00:26:27.151Z,9.58
2023-02-14T00:28:54.231Z,9.58
2023-02-14T00:31:24.255Z,9.57
2023-02-14T00:33:51.303Z,9.54
2023-02-14T00:36:20.215Z,9.54
2023-02-14T00:38:47.250Z,9.53
2023-02-14T00:41:19.566Z,9.51
2023-02-14T00:43:47.855Z,9.47
2023-02-14T00:46:16.473Z,9.45
2023-02-14T00:48:43.689Z,9.44
2023-02-14T00:51:11.380Z,9.42
2023-02-14T00:53:38.597Z,9.43
2023-02-14T00:56:06.548Z,9.40
2023-02-14T00:58:33.582Z,9.35
2023-02-14T01:01:01.116Z,9.35
2023-02-14T01:03:32.550Z,9.31
2023-02-14T01:06:00.352Z,9.30
2023-02-14T01:08:27.781Z,9.29
2023-02-14T01:10:54.868Z,9.28
2023-02-14T01:13:31.746Z,9.26
2023-02-14T01:15:58.792Z,9.22
2023-02-14T01:18:27.485Z,9.21
2023-02-14T01:21:09.696Z,9.21
2023-02-14T01:23:39.903Z,9.15
2023-02-14T01:26:08.645Z,9.13
2023-02-14T01:28:36.424Z,9.08
2023-02-14T01:31:18.759Z,9.09
2023-02-14T01:33:53.892Z,9.08
2023-02-14T01:36:27.391Z,9.05
2023-02-14T01:38:59.164Z,9.07
2023-02-14T01:41:31.291Z,9.05
2023-02-14T01:44:05.266Z,9.05
2023-02-14T01:46:37.669Z,9.03
2023-02-14T01:49:28.083Z,9.03
2023-02-14T01:52:04.374Z,9.00
2023-02-14T01:54:33.777Z,8.97
2023-02-14T01:57:08.260Z,8.97
2023-02-14T01:59:37.282Z,8.89
2023-02-14T02:02:05.598Z,8.85
2023-02-14T02:04:38.461Z,8.81
2023-02-14T02:07:10.450Z,8.80
2023-02-14T02:09:52.864Z,8.79
2023-02-14T02:12:20.352Z,8.78
2023-02-14T02:14:49.936Z,8.77
2023-02-14T02:17:43.807Z,8.77
2023-02-14T02:20:23.115Z,8.73
2023-02-14T02:23:09.013Z,8.73
2023-02-14T02:25:36.240Z,8.70
2023-02-14T02:28:33.641Z,8.68
2023-02-14T02:31:18.972Z,8.59
2023-02-14T02:34:08.949Z,8.56
2023-02-14T02:37:10.402Z,8.51
2023-02-14T02:40:29.491Z,8.48
2023-02-14T02:43:15.197Z,8.43
2023-02-14T02:46:26.909Z,8.38
2023-02-14T02:49:07.165Z,8.35
2023-02-14T02:52:03.153Z,8.28
2023-02-14T02:54:45.035Z,8.24
2023-02-14T02:57:36.844Z,8.22
2023-02-14T03:00:07.821Z,8.23
2023-02-14T03:02:59.562Z,8.21
2023-02-14T03:05:30.739Z,8.15
2023-02-14T03:07:58.054Z,8.11
2023-02-14T03:10:38.786Z,8.09
2023-02-14T03:13:14.750Z,8.04
2023-02-14T03:15:41.692Z,7.99
2023-02-14T03:18:32.187Z,8.01
2023-02-14T03:21:23.487Z,7.98
2023-02-14T03:24:19.669Z,7.95
2023-02-14T03:26:54.146Z,7.89
2023-02-14T03:29:43.559Z,7.89
2023-02-14T03:32:21.541Z,7.87
2023-02-14T03:34:56.993Z,7.86
2023-02-14T03:37:34.040Z,7.85
2023-02-14T03:40:22.078Z,7.82
2023-02-14T03:42:57.528Z,7.83
2023-02-14T03:45:41.962Z,7.85
2023-02-14T03:48:13.397Z,7.84
2023-02-14T03:50:42.978Z,7.85
2023-02-14T03:53:12.876Z,7.87
2023-02-14T03:55:58.627Z,7.86
2023-02-14T03:58:51.943Z,7.88
2023-02-14T04:01:21.881Z,7.87
2023-02-14T04:03:50.538Z,7.86
2023-02-14T04:06:22.826Z,7.84
2023-02-14T04:08:50.817Z,7.85
2023-02-14T04:11:17.752Z,7.85
2023-02-14T04:13:44.781Z,7.84
2023-02-14T04:16:11.744Z,7.81
2023-02-14T04:18:57.454Z,7.81
2023-02-14T04:21:24.417Z,7.79
2023-02-14T04:23:51.417Z,7.81
2023-02-14T04:26:18.553Z,7.83
2023-02-14T04:28:45.546Z,7.82
2023-02-14T04:31:12.596Z,7.82
2023-02-14T04:33:39.705Z,7.83
2023-02-14T04:36:07.076Z,7.82
2023-02-14T04:38:34.070Z,7.79
2023-02-14T04:41:01.507Z,7.80
2023-02-14T04:43:28.959Z,7.80
2023-02-14T04:45:55.878Z,7.80
2023-02-14T04:48:22.958Z,7.81
2023-02-14T04:50:55.908Z,7.80
2023-02-14T04:53:23.134Z,7.79
2023-02-14T04:55:50.674Z,7.80
2023-02-14T04:58:18.178Z,7.79
2023-02-14T05:00:45.250Z,7.76
2023-02-14T05:03:12.259Z,7.78
2023-02-14T05:05:39.277Z,7.76
2023-02-14T05:08:06.270Z,7.75
2023-02-14T05:10:33.257Z,7.75
2023-02-14T05:13:01.426Z,7.76
2023-02-14T05:15:28.404Z,7.75
2023-02-14T05:17:55.389Z,7.73
2023-02-14T05:20:22.537Z,7.69
2023-02-14T05:22:49.430Z,7.72
2023-02-14T05:25:16.437Z,7.69
2023-02-14T05:27:43.448Z,7.69
2023-02-14T05:30:11.226Z,7.70
2023-02-14T05:32:38.163Z,7.70
2023-02-14T05:35:05.423Z,7.68
2023-02-14T05:37:32.343Z,7.66
2023-02-14T05:39:59.439Z,7.65
2023-02-14T05:42:26.401Z,7.66
2023-02-14T05:44:53.332Z,7.67
2023-02-14T05:47:20.230Z,7.65
2023-02-14T05:49:47.173Z,7.63
2023-02-14T05:52:14.114Z,7.64
2023-02-14T05:54:41.087Z,7.63
2023-02-14T05:57:08.015Z,7.62
2023-02-14T05:59:35.118Z,7.59
2023-02-14T06:02:02.133Z,7.56
2023-02-14T06:04:29.139Z,7.55
2023-02-14T06:06:56.073Z,7.45
2023-02-14T06:09:23.001Z,7.44
2023-02-14T06:11:49.975Z,7.39
2023-02-14T06:14:16.954Z,7.35
2023-02-14T06:16:43.987Z,7.29
2023-02-14T06:19:10.940Z,7.27
2023-02-14T06:21:37.971Z,7.27
2023-02-14T06:24:05.007Z,7.24
2023-02-14T06:26:33.315Z,7.21
2023-02-14T06:29:00.240Z,7.15
2023-02-14T06:31:27.293Z,7.09
2023-02-14T06:33:55.182Z,7.08
2023-02-14T06:36:23.852Z,7.06
2023-02-14T06:38:51.031Z,7.07
2023-02-14T06:41:18.020Z,7.04
2023-02-14T06:43:48.647Z,7.04
2023-02-14T06:46:16.780Z,7.04
2023-02-14T06:48:44.414Z,7.05
2023-02-14T06:51:11.718Z,7.04
2023-02-14T06:53:38.848Z,7.05
2023-02-14T06:56:06.570Z,7.04
2023-02-14T06:58:33.645Z,7.05
2023-02-14T07:01:00.987Z,7.28
2023-02-14T07:03:28.180Z,7.64
2023-02-14T07:05:55.526Z,8.04
2023-02-14T07:08:23.364Z,8.35
2023-02-14T07:10:51.739Z,8.56
2023-02-14T07:13:18.631Z,8.94
2023-02-14T07:15:47.329Z,9.30
2023-02-14T07:18:14.385Z,9.61
2023-02-14T07:20:41.452Z,9.95
2023-02-14T07:23:08.303Z,10.27
2023-02-14T07:25:35.405Z,10.52
2023-02-14T07:28:03.074Z,10.86
2023-02-14T07:30:30.088Z,11.08
2023-02-14T07:32:57.992Z,11.69
2023-02-14T07:35:25.207Z,12.23
2023-02-14T07:37:52.263Z,12.77
2023-02-14T07:40:22.525Z,13.35
2023-02-14T07:42:57.001Z,13.97
2023-02-14T07:45:25.859Z,13.99
2023-02-14T07:47:55.237Z,13.72
2023-02-14T07:50:23.684Z,13.34
2023-02-14T07:52:50.799Z,13.37
2023-02-14T07:55:19.396Z,14.04
2023-02-14T07:57:48.560Z,14.17
2023-02-14T08:00:15.843Z,15.11
2023-02-14T08:02:42.755Z,15.75
2023-02-14T08:05:10.161Z,16.62
2023-02-14T08:07:37.147Z,17.40
2023-02-14T08:10:04.502Z,18.07
2023-02-14T08:12:50.204Z,18.78
2023-02-14T08:15:35.855Z,19.32
2023-02-14T08:18:03.087Z,19.78
2023-02-14T08:20:31.927Z,20.31
2023-02-14T08:22:59.006Z,20.57
2023-02-14T08:25:25.937Z,21.04
2023-02-14T08:27:52.782Z,21.64
2023-02-14T08:30:19.684Z,22.25
2023-02-14T08:32:46.969Z,22.79
2023-02-14T08:35:14.542Z,23.44
2023-02-14T08:37:41.490Z,24.03
2023-02-14T08:40:08.896Z,24.38
2023-02-14T08:42:36.069Z,24.91
2023-02-14T08:45:03.104Z,25.28
2023-02-14T08:47:35.898Z,25.63
2023-02-14T08:50:04.572Z,26.15
2023-02-14T08:52:31.628Z,26.63
2023-02-14T08:54:59.303Z,26.82
2023-02-14T08:57:27.798Z,27.24
2023-02-14T08:59:54.874Z,27.39
2023-02-14T09:02:24.057Z,27.83
2023-02-14T09:04:51.144Z,28.10
2023-02-14T09:07:18.524Z,28.59
2023-02-14T09:09:45.631Z,28.74
2023-02-14T09:12:12.715Z,29.01
2023-02-14T09:14:44.102Z,29.36
2023-02-14T09:17:15.376Z,29.73
2023-02-14T09:19:42.928Z,30.09
2023-02-14T09:22:11.397Z,30.57
2023-02-14T09:24:39.609Z,30.95
2023-02-14T09:27:06.651Z,31.15
2023-02-14T09:29:34.243Z,31.56
2023-02-14T09:32:02.437Z,31.90
2023-02-14T09:34:30.226Z,32.22
2023-02-14T09:36:57.786Z,32.42
2023-02-14T09:39:25.009Z,32.67
2023-02-14T09:41:57.994Z,33.07
2023-02-14T09:44:30.336Z,33.28
2023-02-14T09:47:03.016Z,33.32
2023-02-14T09:49:36.209Z,33.48
2023-02-14T09:52:06.868Z,33.91
2023-02-14T09:54:36.080Z,33.93
2023-02-14T09:57:14.469Z,34.06
2023-02-14T09:59:50.222Z,34.28
2023-02-14T10:02:43.401Z,34.64
2023-02-14T10:05:37.113Z,34.71
2023-02-14T10:08:22.647Z,34.87
2023-02-14T10:11:10.122Z,35.39
2023-02-14T10:13:46.271Z,35.28
2023-02-14T10:16:29.600Z,35.49
2023-02-14T10:19:05.588Z,35.73
2023-02-14T10:21:40.003Z,35.92
2023-02-14T10:24:25.307Z,36.02
2023-02-14T10:26:57.877Z,36.10
2023-02-14T10:29:27.193Z,36.16
2023-02-14T10:32:02.663Z,36.50
2023-02-14T10:34:41.821Z,36.10
2023-02-14T10:37:26.825Z,35.97
2023-02-14T10:39:57.017Z,35.73
2023-02-14T10:42:50.315Z,35.25
2023-02-14T10:45:28.281Z,35.42
2023-02-14T10:48:23.209Z,35.29
2023-02-14T10:51:19.404Z,35.39
2023-02-14T10:54:18.565Z,35.07
2023-02-14T10:56:52.825Z,35.11
2023-02-14T10:59:26.072Z,34.33
2023-02-14T11:01:55.068Z,33.17
2023-02-14T11:04:25.063Z,33.22
2023-02-14T11:06:52.853Z,33.62
2023-02-14T11:09:21.035Z,33.73
2023-02-14T11:11:54.501Z,33.70
2023-02-14T11:14:26.387Z,33.84
2023-02-14T11:16:54.520Z,32.66
2023-02-14T11:19:29.875Z,31.57
2023-02-14T11:21:59.773Z,29.98
2023-02-14T11:24:29.319Z,29.50
2023-02-14T11:27:00.539Z,28.88
2023-02-14T11:29:45.190Z,28.27
2023-02-14T11:32:28.607Z,27.88
2023-02-14T11:35:08.248Z,26.62
2023-02-14T11:37:49.935Z,26.70
2023-02-14T11:40:36.589Z,25.95
2023-02-14T11:43:15.630Z,24.75
2023-02-14T11:45:44.557Z,24.63
2023-02-14T11:48:37.835Z,22.59
2023-02-14T11:51:11.032Z,22.84
2023-02-14T11:53:49.004Z,22.61
2023-02-14T11:56:18.227Z,22.42
2023-02-14T11:58:45.148Z,22.44
2023-02-14T12:01:22.307Z,22.15
2023-02-14T12:03:50.624Z,21.57
2023-02-14T12:06:30.515Z,21.16
2023-02-14T12:09:22.798Z,20.93
2023-02-14T12:11:57.629Z,21.03
2023-02-14T12:14:29.637Z,20.97
2023-02-14T12:17:35.829Z,20.60
2023-02-14T12:20:19.686Z,20.21
2023-02-14T12:23:07.475Z,20.11
2023-02-14T12:25:50.752Z,20.03
2023-02-14T12:28:27.781Z,19.86
2023-02-14T12:30:54.776Z,19.56
2023-02-14T12:33:23.594Z,19.52
2023-02-14T12:35:59.592Z,19.42
2023-02-14T12:38:32.523Z,19.33
2023-02-14T12:41:36.992Z,19.06
2023-02-14T12:44:16.836Z,18.80
2023-02-14T12:47:15.717Z,18.69
2023-02-14T12:49:49.483Z,18.41
2023-02-14T12:52:28.392Z,18.10
2023-02-14T12:55:17.150Z,18.19
2023-02-14T12:57:46.938Z,18.10
2023-02-14T13:00:35.224Z,18.00
2023-02-14T13:03:39.262Z,18.04
2023-02-14T13:06:47.283Z,17.89
2023-02-14T13:09:47.857Z,17.70
2023-02-14T13:12:46.091Z,17.59
2023-02-14T13:15:13.131Z,17.59
2023-02-14T13:17:47.560Z,17.44
2023-02-14T13:20:26.084Z,17.47
2023-02-14T13:22:56.005Z,17.49
2023-02-14T13:25:32.030Z,17.31
2023-02-14T13:28:01.998Z,17.20
2023-02-14T13:30:35.286Z,17.28
2023-02-14T13:33:09.596Z,17.33
2023-02-14T13:35:37.681Z,17.17
2023-02-14T13:38:08.656Z,17.16
2023-02-14T13:40:36.623Z,17.07
2023-02-14T13:43:04.112Z,16.98
2023-02-14T13:45:37.774Z,16.97
2023-02-14T13:48:13.981Z,16.93
2023-02-14T13:51:06.285Z,16.95
2023-02-14T13:53:41.942Z,16.99
2023-02-14T13:56:11.907Z,16.99
2023-02-14T13:58:52.656Z,16.95
2023-02-14T14:01:50.774Z,16.80
2023-02-14T14:04:27.957Z,16.79
2023-02-14T14:07:04.147Z,16.85
2023-02-14T14:09:43.740Z,16.75
2023-02-14T14:12:29.287Z,16.59
2023-02-14T14:15:04.962Z,16.43
2023-02-14T14:17:33.685Z,16.30
2023-02-14T14:20:02.543Z,16.22
2023-02-14T14:22:29.690Z,16.09
2023-02-14T14:25:01.139Z,15.93
2023-02-14T14:27:35.552Z,15.96
2023-02-14T14:30:07.496Z,15.93
2023-02-14T14:32:37.423Z,15.88
2023-02-14T14:35:17.069Z,15.77
2023-02-14T14:37:53.105Z,15.77
2023-02-14T14:40:25.694Z,15.76
2023-02-14T14:42:54.345Z,15.73
2023-02-14T14:45:27.419Z,15.68
2023-02-14T14:48:00.585Z,15.54
2023-02-14T14:50:35.969Z,15.55
2023-02-14T14:53:11.893Z,15.44
2023-02-14T14:55:45.823Z,15.47
2023-02-14T14:58:32.816Z,15.37
2023-02-14T15:00:59.904Z,15.41
2023-02-14T15:03:28.513Z,15.31
2023-02-14T15:06:19.196Z,15.20
2023-02-14T15:08:48.245Z,15.19
2023-02-14T15:11:48.278Z,15.14
2023-02-14T15:14:22.593Z,15.01
2023-02-14T15:16:57.780Z,14.90
2023-02-14T15:19:34.858Z,15.05
2023-02-14T15:22:07.805Z,15.05
2023-02-14T15:24:38.438Z,14.98
2023-02-14T15:27:05.675Z,15.05
2023-02-14T15:29:33.464Z,15.14
2023-02-14T15:32:03.241Z,15.25
2023-02-14T15:34:36.230Z,15.26
2023-02-14T15:37:07.013Z,15.33
2023-02-14T15:39:39.156Z,15.43
2023-02-14T15:42:06.868Z,15.38
2023-02-14T15:44:34.026Z,15.21
2023-02-14T15:47:03.984Z,15.32
2023-02-14T15:49:36.008Z,15.32
2023-02-14T15:52:05.925Z,15.05
2023-02-14T15:54:45.500Z,15.09
2023-02-14T15:57:27.677Z,14.96
2023-02-14T15:59:55.224Z,14.86
2023-02-14T16:02:38.830Z,14.81
2023-02-14T16:05:26.242Z,14.92
2023-02-14T16:08:29.581Z,15.01
2023-02-14T16:11:01.774Z,14.94
2023-02-14T16:13:35.155Z,14.91
2023-02-14T16:16:11.356Z,14.94
2023-02-14T16:18:49.263Z,14.89
2023-02-14T16:21:25.867Z,14.87
2023-02-14T16:24:08.174Z,14.97
2023-02-14T16:26:38.323Z,14.96
2023-02-14T16:29:07.297Z,15.01
2023-02-14T16:31:34.929Z,14.99
2023-02-14T16:34:02.037Z,15.00
2023-02-14T16:36:34.098Z,14.95
2023-02-14T16:39:05.395Z,14.86
2023-02-14T16:41:34.444Z,14.91
2023-02-14T16:44:01.341Z,14.85
2023-02-14T16:46:32.971Z,14.87
2023-02-14T16:49:00.104Z,14.85
2023-02-14T16:51:32.889Z,14.88
2023-02-14T16:54:03.039Z,14.87
2023-02-14T16:56:38.099Z,14.77
2023-02-14T16:59:05.266Z,14.74
2023-02-14T17:01:32.746Z,14.68
2023-02-14T17:04:00.819Z,14.66
2023-02-14T17:06:31.598Z,14.67
2023-02-14T17:09:03.017Z,14.60
2023-02-14T17:11:32.434Z,14.55
2023-02-14T17:13:59.634Z,14.49
2023-02-14T17:16:27.185Z,14.41
2023-02-14T17:18:54.258Z,14.38
2023-02-14T17:21:23.252Z,14.35
2023-02-14T17:23:52.772Z,14.31
2023-02-14T17:26:20.087Z,14.21
2023-02-14T17:28:47.423Z,14.18
2023-02-14T17:31:14.670Z,14.17
2023-02-14T17:33:41.762Z,14.08
2023-02-14T17:36:12.148Z,13.96
2023-02-14T17:38:40.636Z,13.94
2023-02-14T17:41:17.013Z,13.93
2023-02-14T17:43:44.010Z,13.71
2023-02-14T17:46:11.688Z,13.73
2023-02-14T17:48:38.587Z,13.74
2023-02-14T17:51:07.448Z,13.75
2023-02-14T17:53:35.141Z,13.75
2023-02-14T17:56:07.368Z,13.73
2023-02-14T17:58:35.592Z,13.70
2023-02-14T18:01:11.402Z,13.69
2023-02-14T18:03:39.929Z,13.68
2023-02-14T18:06:08.051Z,13.67
2023-02-14T18:08:41.030Z,13.58
2023-02-14T18:11:10.730Z,13.53
2023-02-14T18:13:38.699Z,13.52
2023-02-14T18:16:11.508Z,13.52
2023-02-14T18:18:39.339Z,13.43
2023-02-14T18:21:09.338Z,13.48
2023-02-14T18:23:37.613Z,13.54
2023-02-14T18:26:10.133Z,13.59
2023-02-14T18:28:37.126Z,13.55
2023-02-14T18:31:12.699Z,13.51
2023-02-14T18:33:39.858Z,13.49
2023-02-14T18:36:11.979Z,13.49
2023-02-14T18:38:40.688Z,13.47
2023-02-14T18:41:10.769Z,13.49
2023-02-14T18:43:38.697Z,13.51
2023-02-14T18:46:08.364Z,13.50
2023-02-14T18:48:36.042Z,13.57
2023-02-14T18:51:11.609Z,13.62
2023-02-14T18:53:39.590Z,13.59
2023-02-14T18:56:08.519Z,13.56
2023-02-14T18:58:36.143Z,13.61
2023-02-14T19:01:10.111Z,13.60
2023-02-14T19:03:40.542Z,13.60
2023-02-14T19:06:08.591Z,13.61
2023-02-14T19:08:37.740Z,13.62
2023-02-14T19:11:10.114Z,13.60
2023-02-14T19:13:37.492Z,13.53
2023-02-14T19:16:13.073Z,13.54
2023-02-14T19:18:40.409Z,13.49
2023-02-14T19:21:20.076Z,13.48
2023-02-14T19:23:47.406Z,13.48
2023-02-14T19:26:18.034Z,13.50
2023-02-14T19:28:46.880Z,13.49
2023-02-14T19:31:15.338Z,13.49
2023-02-14T19:33:46.680Z,13.50
2023-02-14T19:36:16.876Z,13.48
2023-02-14T19:38:46.135Z,13.46
2023-02-14T19:41:29.908Z,13.46
2023-02-14T19:43:58.457Z,13.43
2023-02-14T19:46:26.719Z,13.40
2023-02-14T19:48:53.887Z,13.38
2023-02-14T19:51:25.850Z,13.34
2023-02-14T19:53:54.159Z,13.25
2023-02-14T19:56:22.996Z,13.26
2023-02-14T19:58:51.570Z,13.23
2023-02-14T20:01:36.233Z,13.19
2023-02-14T20:04:04.746Z,13.11
2023-02-14T20:06:31.874Z,13.07
2023-02-14T20:08:59.094Z,13.02
2023-02-14T20:11:36.430Z,13.01
2023-02-14T20:14:05.435Z,12.99
2023-02-14T20:16:34.363Z,12.96
2023-02-14T20:19:03.563Z,12.96
2023-02-14T20:21:30.529Z,12.90
2023-02-14T20:24:06.960Z,12.90
2023-02-14T20:26:39.529Z,12.86
2023-02-14T20:29:07.568Z,12.81
2023-02-14T20:31:35.172Z,12.77
2023-02-14T20:34:02.982Z,12.73
2023-02-14T20:36:30.885Z,12.67
2023-02-14T20:38:59.812Z,12.65
2023-02-14T20:41:28.003Z,12.67
2023-02-14T20:43:55.829Z,12.64
2023-02-14T20:46:23.627Z,12.63
2023-02-14T20:48:51.110Z,12.61
2023-02-14T20:51:20.549Z,12.61
2023-02-14T20:53:51.476Z,12.57
2023-02-14T20:56:18.945Z,12.58
2023-02-14T20:58:45.890Z,12.53
2023-02-14T21:01:21.534Z,12.51
2023-02-14T21:03:51.055Z,12.48
2023-02-14T21:06:20.111Z,12.48
2023-02-14T21:08:47.744Z,12.46
2023-02-14T21:11:17.247Z,12.40
2023-02-14T21:13:44.433Z,12.39
2023-02-14T21:16:16.536Z,12.33
2023-02-14T21:18:51.818Z,12.29
2023-02-14T21:21:25.902Z,12.26
2023-02-14T21:23:54.242Z,12.25
2023-02-14T21:26:21.449Z,12.22
2023-02-14T21:28:48.884Z,12.22
2023-02-14T21:31:20.916Z,12.17
2023-02-14T21:33:57.543Z,12.14
2023-02-14T21:36:27.013Z,12.13
2023-02-14T21:38:58.519Z,12.13
2023-02-14T21:41:28.200Z,12.10
2023-02-14T21:43:58.411Z,12.08
2023-02-14T21:46:30.836Z,12.07
2023-02-14T21:49:18.254Z,12.03
2023-02-14T21:51:46.380Z,12.01
2023-02-14T21:54:14.124Z,12.01
2023-02-14T21:56:44.416Z,12.01
2023-02-14T21:59:12.463Z,11.99
2023-02-14T22:01:41.727Z,11.94
2023-02-14T22:04:10.311Z,11.93
2023-02-14T22:06:39.483Z,11.90
2023-02-14T22:09:07.069Z,11.91
2023-02-14T22:11:34.577Z,11.88
2023-02-14T22:14:01.727Z,11.91
2023-02-14T22:16:28.824Z,11.90
2023-02-14T22:18:55.928Z,11.89
2023-02-14T22:21:25.111Z,11.89
2023-02-14T22:23:52.476Z,11.87
2023-02-14T22:26:25.927Z,11.86
2023-02-14T22:28:57.266Z,11.83
2023-02-14T22:31:25.601Z,11.77
2023-02-14T22:33:53.311Z,11.73
2023-02-14T22:36:20.808Z,11.70
2023-02-14T22:38:47.787Z,11.70
2023-02-14T22:41:17.552Z,11.71
2023-02-14T22:43:45.750Z,11.66
2023-02-14T22:46:19.546Z,11.67
2023-02-14T22:48:48.356Z,11.61
2023-02-14T22:51:25.225Z,11.61
2023-02-14T22:53:54.845Z,11.57
2023-02-14T22:56:27.565Z,11.56
2023-02-14T22:58:56.831Z,11.56
2023-02-14T23:01:24.836Z,11.53
2023-02-14T23:03:57.251Z,11.53
2023-02-14T23:06:26.191Z,11.48
2023-02-14T23:08:53.933Z,11.48
2023-02-14T23:11:23.930Z,11.46
2023-02-14T23:14:09.825Z,11.45
2023-02-14T23:16:55.625Z,11.38
2023-02-14T23:19:43.724Z,11.37
2023-02-14T23:22:12.420Z,11.36
2023-02-14T23:24:39.484Z,11.36
2023-02-14T23:27:07.646Z,11.35
2023-02-14T23:29:35.568Z,11.34
2023-02-14T23:32:02.750Z,11.31
2023-02-14T23:34:32.094Z,11.29
2023-02-14T23:36:59.762Z,11.32
2023-02-14T23:39:26.768Z,11.31
2023-02-14T23:41:54.022Z,11.30
2023-02-14T23:44:28.475Z,11.29
2023-02-14T23:46:58.153Z,11.27
2023-02-14T23:49:26.356Z,11.27
2023-02-14T23:51:55.269Z,11.28
2023-02-14T23:54:24.238Z,11.26
2023-02-14T23:56:52.650Z,11.28
2023-02-14T23:59:20.748Z,11.26
